• Join FlightAware (Why Join?)
  • Login
  • US Flag 
06:26AM EDT


 

Airport Tracker/Info


-or-


 

Live Flight TrackerFlight Track Log ✈ N7711 ✈ 19-Dec-2013 ✈ KISP - KWST

Flight Track Log - Related Links

Times and Time Zones

All times are in EST time to prevent confusion due to time zone crossing. See the N7711 flight status page for this flight to view local times or setup timezone preferences in your user account.

Time Position Orientation Groundspeed Altitude Reporting Facility
EST Latitude Longitude Course Direction KTS MPH feet Rate Location/Type
12:26PM 40.8000 -73.1333 360° North 82 94 1,300  Level New York TRACON
12:27PM 40.8167 -73.1333 360° North 114 131 1,700 480 Climbing New York TRACON
12:28PM 40.8500 -73.1333 360° North 120 138 2,300 480 Climbing New York TRACON
12:29PM 40.8833 -73.1167 21° North 131 151 2,700 120 Climbing New York TRACON
12:30PM 40.9167 -73.0667 49° Northeast 174 200 2,600 -120 Descending New York TRACON
12:31PM 40.9333 -73.0167 66° East 178 205 2,500 -60 Descending New York TRACON
12:32PM 40.9333 -72.9500 90° East 175 201 2,500  Level New York TRACON
12:33PM 40.9500 -72.8833 72° East 174 200 2,500  Level New York TRACON
12:34PM 40.9500 -72.8167 90° East 172 198 2,500  Level New York TRACON
12:35PM 40.9667 -72.7667 66° East 172 198 2,500  Level New York TRACON
12:37PM 40.9906 -72.7137 59° Northeast  Level FlightAware Approximate
12:44PM 41.1493 -72.3597 59° Northeast  Level FlightAware Approximate
12:45PM 41.1719 -72.3090 59° Northeast  Level FlightAware Approximate
12:46PM 41.1927 -72.2537 67° East  Level FlightAware Approximate
12:47PM 41.2100 -72.1994 67° East  Level FlightAware Approximate
12:48PM 41.2272 -72.1450 67° East  Level FlightAware Approximate
12:49PM 41.2443 -72.0906 67° East  Level FlightAware Approximate
12:50PM 41.2615 -72.0362 67° East  Level FlightAware Approximate
12:51PM 41.2786 -71.9818 67° East  Level FlightAware Approximate
12:52PM 41.2952 -71.9270 68° East  Level FlightAware Approximate
12:53PM 41.3117 -71.8722 68° East  Level FlightAware Approximate
12:54PM 41.3282 -71.8173 68° East  Level FlightAware Approximate
12:55PM 41.3333 -71.8000 68° East  Level FlightAware Approximate
12:56PM 41.3496 -71.8034 68° East  Level Estimated
12:57PM 41.3496 -71.8034 68° East  Level Estimated
12:58PM 41.3496 -71.8034 68° East  Level Estimated
12:59PM 41.3496 -71.8034 68° East  Level Estimated
01:00PM 41.3496 -71.8034 68° East  Level Estimated
01:01PM 41.3496 -71.8034 68° East  Level Estimated
01:02PM 41.3496 -71.8034 68° East  Level Estimated